Latest Coastal Weather Observations for Maria Island

IDT60701

Issued at 6:55 pm EDT Friday 31 October 2014 (issued every 10 minutes, with the page automatically refreshed every 10 minutes)

About coastal observations | Map of coastal stations | Coastal observations for TAS | Marine services | Other Formats
Station Details ID: 092124 Name: MARIA ISLAND (POINT LESUEUR) Lat: -42.66 Lon: 148.02 Height: 28.0 m
Data from the previous 72 hours. | See also: Recent months at Maria Island
Date/Time
EDT
Temp

°C
Wind Pressure Rain
since 9am
mm
Weather Cloud Vis
km
Sea
Height
m
Swell
Dir
 
Speed
knots
Gust
knots
hPa Trend Height
m
Period
s
Dir
31/06:30pm 17.1 N 20 25 996.7 - 0.0 - - - - - - -
31/06:00pm 16.6 N 15 18 997.3 - 0.0 - - - - - - -
31/05:30pm 17.2 N 15 18 997.6 - 0.0 - - - - - - -
31/05:00pm 17.8 N 17 20 997.9 - 0.0 - - - - - - -
31/04:30pm 16.7 N 17 19 998.3 - 0.0 - - - - - - -
31/04:00pm 17.8 N 16 18 998.9 - 0.0 - - - - - - -
31/03:30pm 17.1 N 15 17 999.0 - 0.0 - - - - - - -
31/03:00pm 18.1 N 19 22 999.6 - 0.0 - - - - - - -
31/02:30pm 16.9 N 16 18 1000.0 - 0.0 - - - - - - -
31/02:00pm 16.5 N 12 14 1000.3 - 0.0 - - - - - - -
31/01:30pm 16.4 NNW 16 19 1000.4 - 0.0 - - - - - - -
31/01:00pm 16.0 NNW 17 19 1001.3 - 0.0 - - - - - - -
31/12:30pm 15.8 N 17 19 1001.4 - 0.0 - - - - - - -
31/12:00pm 14.9 N 16 19 1001.9 - 0.0 - - - - - - -
31/11:30am 14.3 NNW 15 18 1002.7 - 0.0 - - - - - - -
31/11:00am 14.1 N 14 18 1002.9 - 0.0 - - - - - - -
31/10:30am 13.7 N 10 12 1003.9 - 0.0 - - - - - - -
31/10:00am 13.2 NW 15 17 1003.9 - 0.0 - - - - - - -
31/09:30am 12.7 NW 15 18 1004.4 - 0.0 - - - - - - -
31/09:00am 12.7 NW 15 18 1004.8 - 2.6 - - - - - - -
31/08:30am 12.6 NNW 16 19 1004.8 - 2.6 - - - - - - -
31/08:00am 12.9 NW 14 18 1005.4 - 2.6 - - - - - - -
31/07:30am 12.0 NW 18 21 1005.3 - 2.6 - - - - - - -
31/07:00am 11.7 NNW 16 19 1005.4 - 2.6 - - - - - - -
31/06:30am 11.9 NNW 18 21 1005.3 - 2.6 - - - - - - -
31/06:00am 11.9 NNW 16 19 1005.5 - 2.6 - - - - - - -
31/05:30am 12.1 NNW 15 18 1005.5 - 2.6 - - - - - - -
31/05:00am 12.2 NNW 19 21 1005.4 - 2.6 - - - - - - -
31/04:30am 12.2 NNW 16 19 1005.6 - 2.6 - - - - - - -
31/04:00am 11.9 N 14 17 1005.9 - 2.6 - - - - - - -
31/03:55am 12.0 N 15 17 1006.0 - 2.6 - - - - - - -
31/03:30am 11.1 N 3 5 1006.5 - 2.6 - - - - - - -
31/03:00am 11.1 NNW 8 11 1006.7 - 2.6 - - - - - - -
31/02:30am 11.5 NNW 8 11 1006.8 - 2.6 - - - - - - -
31/02:00am 11.0 NNW 6 8 1007.0 - 2.6 - - - - - - -
31/01:30am 11.9 N 11 15 1007.6 - 2.6 - - - - - - -
31/01:00am 12.0 N 11 13 1007.7 - 2.6 - - - - - - -
31/12:30am 11.9 N 11 13 1008.1 - 2.6 - - - - - - -
31/12:00am 11.9 N 10 13 1008.3 - 2.6 - - - - - - -
 
Date/Time
EDT
Temp

°C
Wind Pressure Rain
since 9am
mm
Weather Cloud Vis
km
Sea
Height
m
Swell
Dir
 
Speed
knots
Gust
knots
hPa Trend Height
m
Period
s
Dir
30/11:30pm 11.9 N 11 13 1008.4 - 2.6 - - - - - - -
30/11:00pm 11.9 N 9 11 1008.6 - 2.6 - - - - - - -
30/10:30pm 11.6 N 10 13 1008.8 - 2.6 - - - - - - -
30/10:00pm 11.9 N 11 14 1008.9 - 2.6 - - - - - - -
30/09:30pm 11.6 N 12 16 1008.8 - 2.6 - - - - - - -
30/09:00pm 11.9 N 14 16 1008.7 - 2.6 - - - - - - -
30/08:30pm 11.8 N 12 15 1008.6 - 2.6 - - - - - - -
30/08:00pm 11.8 N 13 15 1008.3 - 2.6 - - - - - - -
30/07:30pm 12.3 N 11 13 1008.2 - 2.6 - - - - - - -
30/07:00pm 12.5 N 2 4 1008.2 - 2.6 - - - - - - -
30/06:30pm 12.2 ENE 4 6 1007.9 - 2.6 - - - - - - -
30/06:00pm 12.0 E 5 8 1007.8 - 2.6 - - - - - - -
30/05:30pm 12.2 E 6 8 1007.8 - 2.6 - - - - - - -
30/05:00pm 12.3 E 7 9 1007.8 - 2.6 - - - - - - -
30/04:30pm 11.8 ENE 7 10 1007.5 - 2.6 - - - - - - -
30/04:00pm 11.9 E 7 10 1007.5 - 2.6 - - - - - - -
30/03:30pm 11.5 E 8 11 1007.4 - 2.4 - - - - - - -
30/03:00pm 11.5 E 10 14 1007.1 - 1.4 Rain - - - - - -
30/02:30pm 12.3 E 13 16 1007.0 - 0.6 - - - - - - -
30/02:00pm 11.7 E 9 12 1007.0 - 0.6 - - - - - - -
30/01:30pm 12.7 ESE 12 15 1007.1 - 0.4 - - - - - - -
30/01:00pm 14.1 ESE 12 15 1007.1 - 0.4 - - - - - - -
30/12:30pm 12.5 ESE 14 18 1007.0 - 0.4 - - - - - - -
30/12:00pm 14.2 E 14 17 1007.1 - 0.0 - - - - - - -
30/11:30am 14.4 E 9 14 1007.1 - 0.0 - - - - - - -
30/11:00am 16.4 SSW 3 4 1007.2 - 0.0 - - - - - - -
30/10:30am 15.3 NNW 2 4 1007.2 - 0.0 - - - - - - -
30/10:00am 14.7 N 5 6 1007.1 - 0.0 - - - - - - -
30/09:30am 14.4 N 9 10 1007.1 - 0.0 - - - - - - -
30/09:00am 14.0 N 8 10 1007.2 - 0.0 - - - - - - -
30/08:30am 14.7 NNW 6 8 1007.3 - 0.0 - - - - - - -
30/08:00am 13.9 NW 8 10 1007.2 - 0.0 - - - - - - -
30/07:30am 13.7 NNW 6 8 1007.2 - 0.0 - - - - - - -
30/07:00am 12.8 NNW 11 15 1006.4 - 0.0 - - - - - - -
30/06:30am 12.8 NNW 9 11 1006.5 - 0.0 - - - - - - -
30/06:00am 12.6 NW 7 9 1006.3 - 0.0 - - - - - - -
30/05:30am 13.0 NW 7 10 1006.2 - 0.0 - - - - - - -
30/05:00am 12.9 WNW 7 9 1006.0 - 0.0 - - - - - - -
30/04:30am 12.9 WNW 9 14 1006.2 - 0.0 - - - - - - -
30/04:00am 13.3 WNW 14 20 1005.8 - 0.0 - - - - - - -
30/03:30am 13.2 WNW 13 19 1005.9 - 0.0 - - - - - - -
30/03:00am 13.5 WNW 15 19 1005.9 - 0.0 - - - - - - -
30/02:30am 13.6 WNW 18 24 1005.9 - 0.0 - - - - - - -
30/02:00am 13.7 WNW 17 25 1005.9 - 0.0 - - - - - - -
30/01:30am 13.7 WNW 18 28 1005.8 - 0.0 - - - - - - -
30/01:13am 13.9 WNW 19 29 1005.7 - 0.0 - - - - - - -
30/01:00am 13.8 WNW 19 28 1005.9 - 0.0 - - - - - - -
30/12:30am 13.9 WNW 19 24 1006.1 - 0.0 - - - - - - -
30/12:00am 13.8 WNW 17 25 1006.3 - 0.0 - - - - - - -
 
Date/Time
EDT
Temp

°C
Wind Pressure Rain
since 9am
mm
Weather Cloud Vis
km
Sea
Height
m
Swell
Dir
 
Speed
knots
Gust
knots
hPa Trend Height
m
Period
s
Dir
29/11:30pm 14.1 WNW 17 21 1006.5 - 0.0 - - - - - - -
29/11:00pm 14.3 NW 15 21 1006.4 - 0.0 - - - - - - -
29/10:30pm 14.4 NW 13 19 1006.7 - 0.0 - - - - - - -
29/10:00pm 14.3 WNW 14 17 1006.9 - 0.0 - - - - - - -
29/09:30pm 14.9 W 15 21 1007.0 - 0.0 - - - - - - -
29/09:00pm 15.0 W 17 23 1006.7 - 0.0 - - - - - - -
29/08:30pm 15.2 W 16 23 1006.2 - 0.0 - - - - - - -
29/08:00pm 15.8 WNW 12 19 1006.0 - 0.0 - - - - - - -
29/07:30pm 16.4 WNW 16 25 1005.8 - 0.0 - - - - - - -
29/07:15pm 16.7 W 21 34 1005.7 - 0.0 - - - - - - -
29/07:00pm 17.2 W 17 22 1005.8 - 0.0 - - - - - - -
29/06:40pm 17.6 WNW 17 27 1005.3 - 0.0 - - - - - - -
29/06:30pm 17.7 W 18 25 1005.3 - 0.0 - - - - - - -
29/06:13pm 17.6 W 22 33 1005.2 - 0.0 - - - - - - -
29/06:00pm 17.3 W 26 33 1005.1 - 0.0 - - - - - - -
29/05:33pm 18.7 W 17 27 1005.1 - 0.0 - - - - - - -
29/05:30pm 18.8 W 16 22 1005.3 - 0.0 - - - - - - -
29/05:00pm 19.1 W 13 22 1005.2 - 0.0 - - - - - - -
29/04:30pm 18.9 W 12 18 1005.4 - 0.0 - - - - - - -
29/04:00pm 18.7 WNW 16 20 1005.2 - 0.0 - - - - - - -
29/03:30pm 18.5 WNW 23 29 1005.0 - 0.0 - - - - - - -
29/03:18pm 19.1 WNW 20 30 1005.4 - 0.0 - - - - - - -
29/03:00pm 18.8 WNW 20 28 1005.7 - 0.0 - - - - - - -
29/02:30pm 18.6 WNW 19 28 1006.1 - 0.0 - - - - - - -
29/02:21pm 18.4 WNW 16 27 1006.0 - 0.0 - - - - - - -
29/02:00pm 18.5 WNW 17 26 1006.8 - 0.0 - - - - - - -
29/01:54pm 18.0 NW 15 26 1006.9 - 0.0 - - - - - - -
29/01:30pm 17.2 W 16 21 1007.3 - 0.0 - - - - - - -
29/01:05pm 16.6 WNW 19 30 1007.2 - 0.0 - - - - - - -
29/01:00pm 17.1 WNW 17 23 1007.4 - 0.0 - - - - - - -
29/12:30pm 16.4 WNW 17 27 1007.6 - 0.0 - - - - - - -
29/12:01pm 15.8 WNW 18 28 1008.0 - 0.0 - - - - - - -
29/12:00pm 15.9 W 19 29 1008.0 - 0.0 - - - - - - -
29/11:51am 16.3 WNW 18 29 1007.9 - 0.0 - - - - - - -
29/11:49am 16.6 WNW 16 22 1008.1 - 0.0 - - - - - - -
29/11:30am 15.2 NW 10 11 1008.6 - 0.0 - - - - - - -
29/11:00am 14.6 WNW 13 17 1008.9 - 0.0 - - - - - - -
29/10:30am 13.9 WNW 15 21 1009.4 - 0.0 - - - - - - -
29/10:14am 14.1 WNW 15 20 1009.4 - 0.0 - - - - - - -
29/10:00am 13.1 NW 7 10 1009.6 - 0.0 - - - - - - -
29/09:30am 13.4 NW 14 19 1009.3 - 0.0 - - - - - - -
29/09:00am 12.5 WNW 14 18 1009.5 - 0.4 - - - - - - -
29/08:30am 11.3 NNW 9 14 1009.6 - 0.4 - - - - - - -
29/08:00am 10.3 NNW 10 13 1009.6 - 0.4 - - - - - - -
29/07:30am 9.8 N 12 15 1009.6 - 0.4 - - - - - - -
29/07:00am 9.3 NNW 12 14 1009.6 - 0.4 - - - - - - -
29/06:30am 8.9 WNW 9 12 1009.4 - 0.4 - - - - - - -
29/06:00am 8.6 NW 10 12 1009.0 - 0.4 - - - - - - -
29/05:30am 8.3 WNW 6 7 1008.8 - 0.4 - - - - - - -
29/05:00am 8.6 NW 3 5 1008.4 - 0.4 - - - - - - -
29/04:30am 8.3 NW 5 6 1008.4 - 0.4 - - - - - - -
29/04:00am 8.8 WSW 8 12 1007.5 - 0.4 - - - - - - -
29/03:30am 8.9 SSW 10 12 1007.3 - 0.4 - - - - - - -
29/03:00am 8.8 W 7 10 1007.2 - 0.4 - - - - - - -
29/02:30am 9.2 SW 14 19 1006.6 - 0.4 - - - - - - -
29/02:00am 9.3 SW 17 24 1006.4 - 0.4 - - - - - - -
29/01:30am 9.1 SW 17 24 1006.1 - 0.4 - - - - - - -
29/01:17am 9.2 SW 17 24 1005.9 - 0.4 - - - - - - -
29/01:00am 9.0 SSW 10 14 1006.1 - 0.4 - - - - - - -
29/12:30am 9.1 WSW 6 10 1005.8 - 0.4 - - - - - - -
29/12:00am 9.4 WSW 19 24 1005.0 - 0.4 - - - - - - -
 
Date/Time
EDT
Temp

°C
Wind Pressure Rain
since 9am
mm
Weather Cloud Vis
km
Sea
Height
m
Swell
Dir
 
Speed
knots
Gust
knots
hPa Trend Height
m
Period
s
Dir
28/11:30pm 9.4 WSW 21 36 1004.4 - 0.4 - - - - - - -
28/11:29pm 9.4 WSW 20 36 1004.4 - 0.4 - - - - - - -
28/11:00pm 9.3 WSW 17 24 1004.2 - 0.4 - - - - - - -
28/10:30pm 9.4 WSW 22 35 1003.6 - 0.4 - - - - - - -
28/10:18pm 9.2 WSW 20 30 1003.7 - 0.4 - - - - - - -
28/10:00pm 9.0 W 21 27 1003.3 - 0.4 - - - - - - -
28/09:30pm 8.6 W 21 28 1002.9 - 0.4 - - - - - - -
28/09:00pm 8.5 W 20 28 1002.3 - 0.4 - - - - - - -
28/08:30pm 9.0 WSW 24 31 1001.5 - 0.4 - - - - - - -
28/08:18pm 9.1 WSW 25 35 1000.8 - 0.4 - - - - - - -
28/08:00pm 10.0 W 21 29 1000.2 - 0.4 - - - - - - -
28/07:42pm 9.8 W 22 34 999.8 - 0.4 - - - - - - -
28/07:30pm 9.7 W 23 29 999.3 - 0.4 - - - - - - -
28/07:00pm 10.3 W 29 41 998.0 - 0.4 - - - - - - -

Other Formats:

Comma delimited format used in spreadsheet applications
http://www.bom.gov.au/fwo/IDT60701/IDT60701.95988.axf

JavaScript Object Notation format (JSON) in row-major order
http://www.bom.gov.au/fwo/IDT60701/IDT60701.95988.json